Time;durP1;ratioP1;P1;durP2;ratioP2;P2;SDS_P1;SDS_P2;PMS_P1;PMS_P2;Temp;Humidity;BMP_temperature;BMP_pressure;BME280_temperature;BME280_humidity;BME280_pressure;Samples;Min_cycle;Max_cycle;Signal;HPM_P1;HPM_P2
2022/01/25 00:10:36;;;;;;;19.67;9.85;;;;;;;-143.84;66.87;45249.00;5072621;28;20183;-76
2022/01/25 00:24:16;;;;;;;19.15;10.02;;;;;;;-143.84;66.97;45228.06;5073008;28;20185;-76
2022/01/25 00:24:28;;;;;;;15.45;8.88;;;;;;;-143.84;67.24;45176.66;5072453;28;20213;-76
2022/01/25 00:27:12;;;;;;;22.17;12.23;;;;;;;-143.84;67.49;45207.13;5071795;28;20202;-75
2022/01/25 00:29:59;;;;;;;18.30;10.75;;;;;;;-143.84;67.30;45210.94;5072390;28;20191;-75
2022/01/25 00:32:26;;;;;;;17.02;9.27;;;;;;;-143.84;67.92;45186.16;5071697;28;20205;-75
2022/01/25 00:34:53;;;;;;;20.15;10.57;;;;;;;-143.84;67.98;45220.44;5070824;28;20196;-76
2022/01/25 00:37:22;;;;;;;13.85;8.80;;;;;;;-143.84;67.88;45197.59;5071257;28;20238;-75
2022/01/25 00:39:49;;;;;;;18.20;10.07;;;;;;;-143.84;68.10;45197.59;5071740;28;20195;-75
2022/01/25 00:42:16;;;;;;;16.42;9.00;;;;;;;-143.84;68.42;45224.25;5071609;28;20194;-76
2022/01/25 00:44:47;;;;;;;19.55;10.02;;;;;;;-143.84;68.32;45249.00;5071148;28;20209;-75
2022/01/25 00:47:16;;;;;;;19.25;10.52;;;;;;;-143.84;68.61;45201.41;5070214;28;20281;-75
2022/01/25 00:49:46;;;;;;;19.73;10.10;;;;;;;-143.84;68.41;45231.88;5071286;28;20205;-77
2022/01/25 00:52:24;;;;;;;18.73;10.38;;;;;;;-143.84;68.58;45229.97;5069043;28;20214;-76
2022/01/25 00:54:52;;;;;;;17.98;10.48;;;;;;;-143.84;68.72;45203.31;5071395;28;20198;-76
2022/01/25 00:57:19;;;;;;;18.75;10.48;;;;;;;-143.84;68.78;45228.06;5071816;28;20226;-77
2022/01/25 00:59:47;;;;;;;19.02;10.40;;;;;;;-143.84;69.04;45212.84;5071843;28;20199;-76
2022/01/25 01:02:17;;;;;;;17.60;9.07;;;;;;;-143.84;69.00;45207.13;5072207;28;20198;-76
2022/01/25 01:04:44;;;;;;;18.05;10.27;;;;;;;-143.84;69.35;45189.97;5072177;28;20281;-76
2022/01/25 01:07:14;;;;;;;14.55;10.27;;;;;;;-143.84;69.38;45245.19;5070975;28;20194;-76
2022/01/25 01:09:44;;;;;;;18.73;10.40;;;;;;;-143.84;69.74;45212.84;5071680;28;20285;-75
2022/01/25 01:12:18;;;;;;;21.13;10.90;;;;;;;-143.84;69.97;45188.06;5071667;28;20190;-75
2022/01/25 01:14:58;;;;;;;21.52;11.35;;;;;;;-143.84;70.21;45195.69;5071934;28;20214;-75
2022/01/25 01:31:26;;;;;;;20.45;10.93;;;;;;;-143.84;71.73;45222.34;5071431;28;21026;-76
2022/01/25 01:34:49;;;;;;;20.25;11.18;;;;;;;-143.84;71.70;45231.88;5070682;28;20255;-76
2022/01/25 01:45:46;;;;;;;22.27;11.70;;;;;;;-143.84;71.81;45189.97;5021802;28;20221;-76
2022/01/25 01:48:26;;;;;;;25.15;13.00;;;;;;;-143.84;72.10;45210.94;5068058;28;20206;-76
2022/01/25 01:50:54;;;;;;;18.27;12.10;;;;;;;-143.84;72.23;45212.84;5069200;28;20291;-76
2022/01/25 01:53:21;;;;;;;34.58;13.10;;;;;;;-143.84;72.39;45216.63;5069317;28;20248;-76
2022/01/25 01:55:48;;;;;;;24.77;12.82;;;;;;;-143.84;72.53;45209.03;5069070;28;20664;-76
2022/01/25 01:58:16;;;;;;;24.50;12.85;;;;;;;-143.84;72.56;45220.44;5069632;28;20284;-76
2022/01/25 02:00:48;;;;;;;38.53;14.43;;;;;;;-143.84;72.95;45212.84;5071495;28;20255;-75
2022/01/25 02:03:17;;;;;;;27.05;14.40;;;;;;;-143.84;72.71;45243.31;5071291;28;20710;-76
2022/01/25 02:05:44;;;;;;;30.55;14.60;;;;;;;-143.84;72.53;45174.75;5070973;28;20205;-75
2022/01/25 02:08:11;;;;;;;31.98;15.50;;;;;;;-143.84;72.50;45216.63;5071439;28;20191;-76
2022/01/25 02:10:39;;;;;;;26.05;13.90;;;;;;;-143.84;72.40;45201.41;5071507;28;20256;-76
2022/01/25 02:13:07;;;;;;;29.65;15.50;;;;;;;-143.84;72.71;45159.50;5071317;28;20244;-76
2022/01/25 02:15:37;;;;;;;27.17;14.98;;;;;;;-143.84;72.77;45195.69;5071513;28;20206;-75
2022/01/25 02:23:40;;;;;;;34.47;15.20;;;;;;;-143.84;74.13;45203.31;5072930;28;20649;-76
2022/01/25 02:26:09;;;;;;;27.90;13.65;;;;;;;-143.84;74.18;45199.50;5074986;28;20198;-76
2022/01/25 02:28:38;;;;;;;24.10;14.07;;;;;;;-143.84;73.97;45239.50;5075231;28;20256;-76
2022/01/25 02:31:07;;;;;;;36.10;17.15;;;;;;;-143.84;73.73;45186.16;5074969;28;20746;-76
2022/01/25 02:33:34;;;;;;;26.08;15.75;;;;;;;-143.84;73.79;45222.34;5074896;28;20240;-76
2022/01/25 02:36:07;;;;;;;30.02;14.48;;;;;;;-143.84;73.85;45233.78;5074297;28;20223;-76
2022/01/25 02:38:35;;;;;;;33.95;16.75;;;;;;;-143.84;73.89;45203.31;5074561;28;20215;-76
2022/01/25 02:41:02;;;;;;;27.10;14.55;;;;;;;-143.84;73.59;45228.06;5074911;28;20191;-76
2022/01/25 02:43:30;;;;;;;33.55;14.80;;;;;;;-143.84;73.53;45220.44;5074623;28;20730;-76
2022/01/25 02:46:20;;;;;;;35.45;17.83;;;;;;;-143.84;73.47;45228.06;5074519;28;20191;-75
2022/01/25 02:48:55;;;;;;;28.75;15.10;;;;;;;-143.84;73.41;45209.03;5074493;28;20233;-76
2022/01/25 02:51:31;;;;;;;29.02;14.57;;;;;;;-143.84;73.39;45205.22;5074416;28;20298;-75
2022/01/25 02:53:59;;;;;;;26.35;14.93;;;;;;;-143.84;73.60;45216.63;5074477;28;20202;-76
2022/01/25 02:56:28;;;;;;;30.10;15.25;;;;;;;-143.84;73.63;45214.72;5074517;28;20244;-76
2022/01/25 02:58:56;;;;;;;23.88;14.25;;;;;;;-143.84;73.60;45218.53;5074183;28;20218;-76
2022/01/25 03:01:24;;;;;;;27.67;14.88;;;;;;;-143.84;73.55;45216.63;5072873;28;20240;-76
2022/01/25 03:03:52;;;;;;;32.25;16.23;;;;;;;-143.84;73.72;45193.78;5072910;28;20198;-76
2022/01/25 03:06:21;;;;;;;27.65;14.75;;;;;;;-143.84;73.64;45203.31;5073933;28;20194;-76
2022/01/25 03:08:51;;;;;;;25.33;13.45;;;;;;;-143.84;73.40;45203.31;5074517;28;20191;-75
2022/01/25 03:11:20;;;;;;;30.20;15.55;;;;;;;-143.84;73.49;45214.72;5074314;28;20202;-76
2022/01/25 03:13:51;;;;;;;30.42;14.32;;;;;;;-143.84;72.99;45224.25;5074059;28;20281;-75
2022/01/25 03:16:26;;;;;;;27.35;14.95;;;;;;;-143.84;72.93;45224.25;5072851;28;20187;-76
2022/01/25 03:18:56;;;;;;;32.90;16.52;;;;;;;-143.84;73.21;45207.13;5073165;28;20233;-76
2022/01/25 03:24:09;;;;;;;30.13;14.48;;;;;;;-143.84;73.47;45193.78;5073784;28;20221;-76
2022/01/25 03:26:36;;;;;;;37.10;17.75;;;;;;;-143.84;74.04;45209.03;5073236;28;20255;-76
2022/01/25 03:29:05;;;;;;;31.60;16.25;;;;;;;-143.84;73.99;45228.06;5073912;28;20191;-76
2022/01/25 03:31:32;;;;;;;27.50;14.88;;;;;;;-143.84;74.38;45207.13;5073860;28;20291;-76
2022/01/25 03:33:59;;;;;;;24.50;13.45;;;;;;;-143.84;74.61;45184.25;5073583;28;20194;-76
2022/01/25 03:36:27;;;;;;;27.10;14.05;;;;;;;-143.84;74.72;45224.25;5073420;28;20231;-76
2022/01/25 03:38:54;;;;;;;30.58;15.20;;;;;;;-143.84;74.92;45193.78;5073362;28;20885;-75
2022/01/25 03:41:24;;;;;;;24.35;12.60;;;;;;;-143.84;75.04;45203.31;5073606;28;20256;-76
2022/01/25 03:43:55;;;;;;;20.77;12.93;;;;;;;-143.84;74.92;45189.97;5073710;28;20623;-76
2022/01/25 03:46:31;;;;;;;29.17;14.43;;;;;;;-143.84;74.89;45226.16;5073797;28;20205;-76
2022/01/25 03:51:44;;;;;;;24.73;14.80;;;;;;;-143.84;75.09;45224.25;5069465;28;20205;-73
2022/01/25 03:54:11;;;;;;;26.10;14.55;;;;;;;-143.84;74.95;45218.53;5069977;28;20199;-73
2022/01/25 03:56:40;;;;;;;24.17;13.07;;;;;;;-143.84;74.93;45201.41;5071507;28;20244;-73
2022/01/25 03:59:09;;;;;;;29.83;14.60;;;;;;;-143.84;75.33;45197.59;5070740;28;20299;-73
2022/01/25 04:01:37;;;;;;;26.30;15.07;;;;;;;-143.84;75.68;45212.84;5070638;28;20594;-73
2022/01/25 04:04:08;;;;;;;28.60;15.48;;;;;;;-143.84;75.57;45228.06;5071158;28;20234;-73
2022/01/25 04:06:37;;;;;;;24.95;13.15;;;;;;;-143.84;75.38;45176.66;5071792;28;20199;-73
2022/01/25 04:09:07;;;;;;;30.65;12.82;;;;;;;-143.84;75.37;45229.97;5071618;28;20207;-73
2022/01/25 04:11:34;;;;;;;26.10;13.10;;;;;;;-143.84;74.98;45184.25;5071585;28;20206;-73
2022/01/25 04:14:03;;;;;;;30.35;15.10;;;;;;;-143.84;75.23;45231.88;5071331;28;20621;-72
2022/01/25 04:16:35;;;;;;;23.85;13.02;;;;;;;-143.84;74.68;45226.16;5069997;28;20202;-73
2022/01/25 04:19:25;;;;;;;24.42;13.45;;;;;;;-143.84;74.83;45199.50;5070965;28;20211;-73
2022/01/25 04:24:44;;;;;;;21.33;12.02;;;;;;;-143.84;74.46;45209.03;5071307;28;20252;-73
2022/01/25 04:27:12;;;;;;;21.27;10.73;;;;;;;-143.84;74.05;45210.94;5071345;28;20616;-74
2022/01/25 04:29:41;;;;;;;28.55;14.38;;;;;;;-143.84;74.14;45207.13;5071197;28;20256;-73
2022/01/25 04:32:11;;;;;;;20.00;11.45;;;;;;;-143.84;73.54;45212.84;5062047;28;20341;-71
2022/01/25 04:34:42;;;;;;;17.73;10.00;;;;;;;-143.84;73.14;45193.78;5051152;28;20276;-72
2022/01/25 04:51:17;;;;;;;27.25;13.55;;;;;;;-143.84;70.91;45203.31;5059645;28;20577;-72
2022/01/25 04:53:53;;;;;;;18.67;12.07;;;;;;;-143.84;70.49;45180.47;5070657;28;20214;-72
2022/01/25 04:56:26;;;;;;;23.33;12.75;;;;;;;-143.84;69.86;45228.06;5068881;28;20202;-72
2022/01/25 04:59:00;;;;;;;19.70;11.23;;;;;;;-143.84;69.71;45228.06;5070587;28;20312;-72
2022/01/25 05:01:29;;;;;;;17.60;11.43;;;;;;;-143.84;69.09;45231.88;5070720;28;20197;-72
2022/01/25 05:04:02;;;;;;;20.98;11.25;;;;;;;-143.84;69.13;45199.50;5070593;28;20202;-72
2022/01/25 05:06:30;;;;;;;33.20;14.48;;;;;;;-143.84;68.49;45210.94;5070552;28;20228;-72
2022/01/25 05:09:07;;;;;;;24.00;13.55;;;;;;;-143.84;68.43;45235.69;5070386;28;20202;-72
2022/01/25 05:11:35;;;;;;;23.35;14.15;;;;;;;-143.84;68.66;45178.56;5076718;28;20640;-72
2022/01/25 05:14:15;;;;;;;26.75;14.68;;;;;;;-143.84;68.21;45214.72;5089865;28;20206;-74
2022/01/25 05:16:57;;;;;;;21.02;13.18;;;;;;;-143.84;68.35;45197.59;5090099;28;20659;-74
2022/01/25 05:22:03;;;;;;;25.35;14.40;;;;;;;-143.84;68.52;45210.94;5090049;28;20717;-75
2022/01/25 05:22:23;;;;;;;23.45;13.52;;;;;;;-143.84;68.60;45201.41;5090508;28;20202;-70
2022/01/25 05:24:52;;;;;;;26.50;14.70;;;;;;;-143.84;68.50;45189.97;5090131;28;20201;-72
2022/01/25 05:27:22;;;;;;;31.30;14.40;;;;;;;-143.84;68.47;45218.53;5090569;28;20193;-75
2022/01/25 05:29:49;;;;;;;28.42;14.02;;;;;;;-143.84;68.92;45203.31;5081326;28;20202;-75
2022/01/25 05:32:18;;;;;;;33.95;15.65;;;;;;;-143.84;68.92;45233.78;5071906;28;20187;-75
2022/01/25 05:34:46;;;;;;;24.88;13.85;;;;;;;-143.84;69.10;45195.69;5071816;28;20213;-75
2022/01/25 05:37:13;;;;;;;26.88;14.43;;;;;;;-143.84;69.38;45207.13;5071223;28;20258;-75
2022/01/25 05:39:41;;;;;;;29.50;13.95;;;;;;;-143.84;69.18;45224.25;5071208;28;20221;-74
2022/01/25 05:42:26;;;;;;;29.50;15.52;;;;;;;-143.84;69.21;45228.06;5070675;28;20935;-74
2022/01/25 05:45:12;;;;;;;31.98;16.17;;;;;;;-143.84;69.07;45210.94;5069677;28;20206;-74
2022/01/25 05:47:43;;;;;;;31.23;15.98;;;;;;;-143.84;69.17;45214.72;5070654;28;20194;-75
2022/01/25 05:50:12;;;;;;;35.30;16.52;;;;;;;-143.84;69.06;45212.84;5069466;28;20277;-74
2022/01/25 05:52:40;;;;;;;33.88;17.08;;;;;;;-143.84;69.47;45216.63;5078289;28;20619;-74
2022/01/25 05:55:09;;;;;;;30.88;16.00;;;;;;;-143.84;69.31;45209.03;5069364;28;20199;-75
2022/01/25 05:57:36;;;;;;;27.70;14.90;;;;;;;-143.84;69.27;45207.13;5068531;28;20216;-76
2022/01/25 06:00:06;;;;;;;34.42;19.05;;;;;;;-143.84;69.29;45224.25;5074111;28;20272;-76
2022/01/25 06:02:34;;;;;;;27.83;15.32;;;;;;;-143.84;68.98;45212.84;5073223;28;20269;-75
2022/01/25 06:05:04;;;;;;;24.40;14.77;;;;;;;-143.84;68.77;45189.97;5072611;28;20199;-74
2022/01/25 06:07:32;;;;;;;32.63;16.92;;;;;;;-143.84;68.78;45210.94;5072823;28;20194;-74
2022/01/25 06:09:59;;;;;;;31.17;17.33;;;;;;;-143.84;68.56;45209.03;5072463;28;20259;-74
2022/01/25 06:12:27;;;;;;;30.27;15.55;;;;;;;-143.84;68.44;45239.50;5071378;28;20718;-74
2022/01/25 06:14:54;;;;;;;30.98;14.68;;;;;;;-143.84;68.30;45203.31;5071991;28;20195;-74
2022/01/25 06:17:21;;;;;;;38.60;17.60;;;;;;;-143.84;68.63;45228.06;5071687;28;20198;-74
2022/01/25 06:19:48;;;;;;;39.17;17.08;;;;;;;-143.84;68.48;45205.22;5071483;28;20235;-74
2022/01/25 06:22:17;;;;;;;33.58;18.30;;;;;;;-143.84;68.43;45195.69;5070569;28;20195;-74
2022/01/25 06:24:44;;;;;;;33.22;17.83;;;;;;;-143.84;68.25;45212.84;5069320;28;20195;-74
2022/01/25 06:27:11;;;;;;;31.35;17.00;;;;;;;-143.84;67.93;45195.69;5069583;28;20248;-74
2022/01/25 06:29:38;;;;;;;38.85;18.65;;;;;;;-143.84;67.98;45210.94;5069989;28;20268;-74
2022/01/25 06:32:06;;;;;;;33.30;18.02;;;;;;;-143.84;67.98;45205.22;5070454;28;20256;-74
2022/01/25 06:34:33;;;;;;;47.72;21.58;;;;;;;-143.84;67.47;45205.22;5070347;28;20221;-74
2022/01/25 06:37:01;;;;;;;29.05;17.25;;;;;;;-143.84;67.38;45189.97;5069919;28;20242;-74
2022/01/25 06:39:29;;;;;;;34.75;17.40;;;;;;;-143.84;66.89;45216.63;5071504;28;20219;-74
2022/01/25 06:41:56;;;;;;;32.50;17.63;;;;;;;-143.84;66.58;45212.84;5070986;28;20202;-74
2022/01/25 06:44:24;;;;;;;35.50;17.73;;;;;;;-143.84;65.93;45195.69;5071344;28;20202;-74
2022/01/25 06:46:51;;;;;;;34.05;17.98;;;;;;;-143.84;65.79;45159.50;5071019;28;20248;-75
2022/01/25 06:49:18;;;;;;;31.50;17.58;;;;;;;-143.84;65.57;45178.56;5071891;28;20205;-75
2022/01/25 06:51:45;;;;;;;33.25;17.73;;;;;;;-143.84;65.56;45174.75;5071628;28;20201;-74
2022/01/25 06:54:13;;;;;;;31.77;17.65;;;;;;;-143.84;64.58;45210.94;5071760;28;20202;-74
2022/01/25 06:56:41;;;;;;;30.50;16.30;;;;;;;-143.84;63.82;45214.72;5071663;28;20205;-74
2022/01/25 06:59:09;;;;;;;32.13;17.17;;;;;;;-143.84;64.00;45209.03;5071648;28;20228;-74
2022/01/25 07:01:36;;;;;;;32.30;17.33;;;;;;;-143.84;63.28;45188.06;5071543;28;20202;-74
2022/01/25 07:04:04;;;;;;;43.13;16.75;;;;;;;-143.84;62.86;45195.69;5071589;28;20198;-74
2022/01/25 07:06:31;;;;;;;28.92;17.63;;;;;;;-143.84;62.80;45169.03;5071512;28;20233;-75
2022/01/25 07:09:00;;;;;;;32.55;16.75;;;;;;;-143.84;62.01;45195.69;5070896;28;20198;-75
2022/01/25 07:11:28;;;;;;;31.83;18.20;;;;;;;-143.84;61.84;45205.22;5070834;28;20618;-75
2022/01/25 07:13:58;;;;;;;23.90;13.85;;;;;;;-143.84;61.73;45212.84;5071489;28;20692;-75
2022/01/25 07:16:26;;;;;;;35.28;16.55;;;;;;;-143.84;61.99;45205.22;5071578;28;20726;-75
2022/01/25 07:18:53;;;;;;;32.72;17.38;;;;;;;-143.84;62.51;45184.25;5071482;28;20309;-75
2022/01/25 07:21:20;;;;;;;20.95;14.60;;;;;;;-143.84;61.30;45207.13;5071260;28;20203;-74
2022/01/25 07:23:48;;;;;;;28.33;16.40;;;;;;;-143.84;61.97;45174.75;5071282;28;20261;-76
2022/01/25 07:26:15;;;;;;;34.90;16.00;;;;;;;-143.84;60.93;45188.06;5071260;28;20201;-75
2022/01/25 07:28:43;;;;;;;27.08;14.75;;;;;;;-143.84;60.23;45163.31;5071049;28;20279;-75
2022/01/25 07:31:12;;;;;;;31.30;16.15;;;;;;;-143.84;59.94;45186.16;5071508;28;20612;-74
2022/01/25 07:33:39;;;;;;;37.97;15.88;;;;;;;-143.84;60.35;45205.22;5071007;28;20199;-74
2022/01/25 07:36:06;;;;;;;27.75;15.48;;;;;;;-143.84;60.04;45189.97;5070790;28;20292;-75
2022/01/25 07:38:34;;;;;;;29.52;16.67;;;;;;;-143.84;59.57;45172.84;5070637;28;20202;-75
2022/01/25 07:41:01;;;;;;;29.50;14.90;;;;;;;-143.84;59.30;45169.03;5071099;28;20194;-74
2022/01/25 07:43:29;;;;;;;28.23;16.40;;;;;;;-143.84;58.33;45207.13;5070700;28;20199;-75
2022/01/25 07:45:58;;;;;;;25.25;15.00;;;;;;;-143.84;57.72;45165.22;5070977;28;20656;-75
2022/01/25 07:48:27;;;;;;;30.88;16.60;;;;;;;-143.84;57.91;45222.34;5070538;28;20228;-74
2022/01/25 07:50:54;;;;;;;28.83;15.70;;;;;;;-143.84;56.65;45191.88;5070876;28;20598;-74
2022/01/25 07:53:21;;;;;;;25.13;15.13;;;;;;;-143.84;56.16;45184.25;5071037;28;20199;-75
2022/01/25 07:55:48;;;;;;;27.95;16.13;;;;;;;-143.84;55.38;45180.47;5069544;28;20203;-75
2022/01/25 07:58:16;;;;;;;26.73;15.70;;;;;;;-143.84;54.72;45155.69;5068333;28;20661;-75
2022/01/25 08:00:43;;;;;;;27.23;16.40;;;;;;;-143.84;54.53;45212.84;5070156;28;20484;-75
2022/01/25 08:03:11;;;;;;;29.43;16.30;;;;;;;-143.84;53.92;45169.03;5070237;28;20445;-75
2022/01/25 08:05:40;;;;;;;25.57;15.37;;;;;;;-143.84;53.38;45188.06;5070018;28;20831;-75
2022/01/25 08:08:07;;;;;;;27.57;15.50;;;;;;;-143.84;51.54;45197.59;5070328;28;20441;-75
2022/01/25 08:10:34;;;;;;;25.67;15.70;;;;;;;-143.84;49.89;45186.16;5069968;28;20821;-75
2022/01/25 08:13:02;;;;;;;26.17;15.30;;;;;;;-143.84;49.32;45163.31;5070190;28;20433;-75
2022/01/25 08:15:29;;;;;;;25.23;14.63;;;;;;;-143.84;49.30;45197.59;5070113;28;20444;-75
2022/01/25 08:17:56;;;;;;;26.07;15.60;;;;;;;-143.84;48.78;45178.56;5069087;28;20664;-75
2022/01/25 08:20:23;;;;;;;24.97;14.43;;;;;;;-143.84;47.34;45176.66;5069680;28;20492;-75
2022/01/25 08:22:52;;;;;;;34.50;19.17;;;;;;;-143.84;47.66;45163.31;5070089;28;21146;-75
2022/01/25 08:25:20;;;;;;;51.60;28.57;;;;;;;-143.84;47.15;45169.03;5069024;28;20445;-75
2022/01/25 08:27:48;;;;;;;32.73;14.73;;;;;;;-143.84;46.28;45188.06;5069468;28;20429;-75
2022/01/25 08:30:16;;;;;;;21.67;14.30;;;;;;;-143.84;45.78;45165.22;5069946;28;20444;-75
2022/01/25 08:32:43;;;;;;;27.60;15.07;;;;;;;-143.84;44.81;45142.38;5069827;28;20849;-75
2022/01/25 08:35:11;;;;;;;50.63;18.30;;;;;;;-143.84;44.04;45161.41;5069981;28;20453;-75
2022/01/25 08:37:39;;;;;;;28.57;17.37;;;;;;;-143.84;44.21;45144.28;5069345;28;21005;-75
2022/01/25 08:40:10;;;;;;;32.00;13.83;;;;;;;-143.84;43.42;45151.91;5069633;28;20480;-75
2022/01/25 08:42:38;;;;;;;46.63;23.43;;;;;;;-143.84;43.20;45134.75;5069624;28;20819;-75
2022/01/25 08:45:07;;;;;;;37.17;19.07;;;;;;;-143.84;43.61;45151.91;5069500;28;20445;-75
2022/01/25 08:47:36;;;;;;;24.53;14.07;;;;;;;-143.84;42.95;45161.41;5069643;28;20437;-75
2022/01/25 08:50:04;;;;;;;24.47;15.53;;;;;;;-143.84;43.15;45150.00;5069705;28;20502;-75
2022/01/25 08:52:31;;;;;;;30.30;15.67;;;;;;;-143.84;43.01;45167.13;5069743;28;20558;-75
2022/01/25 08:54:58;;;;;;;21.00;13.33;;;;;;;-143.84;42.68;45170.94;5069686;28;20425;-75
2022/01/25 08:57:27;;;;;;;25.50;12.80;;;;;;;-143.84;42.80;45157.59;5069441;28;20438;-75
2022/01/25 08:59:54;;;;;;;25.63;13.37;;;;;;;-143.84;41.81;45163.31;5069377;28;21077;-75
2022/01/25 09:02:21;;;;;;;19.63;10.97;;;;;;;-143.84;40.98;45150.00;5069561;28;20437;-75
2022/01/25 09:04:49;;;;;;;19.30;11.03;;;;;;;-143.84;40.11;45125.22;5069454;28;20448;-75
2022/01/25 09:07:16;;;;;;;20.07;11.33;;;;;;;-143.84;40.70;45169.03;5068399;28;20437;-75
2022/01/25 09:09:44;;;;;;;23.80;12.70;;;;;;;-143.84;40.57;45155.69;5068343;28;20453;-75
2022/01/25 09:12:11;;;;;;;14.70;10.87;;;;;;;-143.84;41.24;45169.03;5068806;28;20530;-74
2022/01/25 09:14:40;;;;;;;20.03;12.63;;;;;;;-143.84;41.30;45151.91;5068364;28;20856;-75
2022/01/25 09:17:09;;;;;;;19.93;12.33;;;;;;;-143.84;40.89;45144.28;5069091;28;20457;-75
2022/01/25 09:19:38;;;;;;;18.90;12.30;;;;;;;-143.84;40.16;45136.66;5068904;28;20485;-75
2022/01/25 09:22:05;;;;;;;18.40;11.33;;;;;;;-143.84;39.50;45153.81;5068859;28;20530;-75
2022/01/25 09:24:33;;;;;;;16.90;10.40;;;;;;;-143.84;39.95;45148.09;5069028;28;20445;-75
2022/01/25 09:27:01;;;;;;;15.90;10.90;;;;;;;-143.84;39.74;45144.28;5069126;28;20448;-75
2022/01/25 09:29:28;;;;;;;22.87;11.40;;;;;;;-143.84;39.38;45129.03;5068877;28;20436;-75
2022/01/25 09:31:57;;;;;;;20.57;11.57;;;;;;;-143.84;39.00;45159.50;5068804;28;20996;-75
2022/01/25 09:34:25;;;;;;;18.43;10.00;;;;;;;-143.84;38.64;45132.84;5069471;28;20811;-75
2022/01/25 09:36:53;;;;;;;16.00;10.40;;;;;;;-143.84;38.60;45184.25;5068637;28;20492;-75
2022/01/25 09:39:21;;;;;;;19.90;12.27;;;;;;;-143.84;38.74;45130.94;5069090;28;20489;-75
2022/01/25 09:41:48;;;;;;;22.63;11.20;;;;;;;-143.84;38.18;45165.22;5068933;28;20438;-75
2022/01/25 09:44:16;;;;;;;14.83;10.27;;;;;;;-143.84;37.99;45146.19;5069419;28;20793;-76
2022/01/25 09:46:44;;;;;;;20.40;10.43;;;;;;;-143.84;37.28;45146.19;5068933;28;20450;-75
2022/01/25 09:49:13;;;;;;;21.10;11.30;;;;;;;-143.84;37.18;45150.00;5068974;28;20440;-75
2022/01/25 09:51:41;;;;;;;16.30;10.83;;;;;;;-143.84;36.55;45144.28;5068753;28;20447;-75
2022/01/25 09:54:08;;;;;;;16.77;10.03;;;;;;;-143.84;35.39;45153.81;5068893;28;20528;-75
2022/01/25 09:56:36;;;;;;;16.03;9.17;;;;;;;-143.84;34.69;45136.66;5068971;28;20891;-75
2022/01/25 09:59:03;;;;;;;16.73;9.93;;;;;;;-143.84;35.35;45110.00;5068727;28;20445;-75
2022/01/25 10:01:33;;;;;;;19.03;10.10;;;;;;;-143.84;35.71;45148.09;5068930;28;20437;-75
2022/01/25 10:04:04;;;;;;;15.80;10.13;;;;;;;-143.84;35.44;45132.84;5068614;28;20449;-75
2022/01/25 10:06:34;;;;;;;18.20;11.73;;;;;;;-143.84;35.43;45155.69;5068520;28;20851;-75
2022/01/25 10:09:02;;;;;;;14.57;10.20;;;;;;;-143.84;35.25;45148.09;5068692;28;20451;-76
2022/01/25 10:11:29;;;;;;;14.77;10.40;;;;;;;-143.84;35.02;45134.75;5068098;28;20429;-76
2022/01/25 10:13:58;;;;;;;14.13;9.60;;;;;;;-143.84;34.28;45119.53;5066876;28;20456;-76
2022/01/25 10:16:32;;;;;;;16.23;10.93;;;;;;;-143.84;34.69;45134.75;5067847;28;20534;-76
2022/01/25 10:19:02;;;;;;;15.70;10.00;;;;;;;-143.84;34.02;45096.66;5068614;28;20447;-75
2022/01/25 10:21:33;;;;;;;16.60;10.50;;;;;;;-143.84;34.11;45117.63;5068257;28;21041;-75
2022/01/25 10:24:05;;;;;;;15.00;10.70;;;;;;;-143.84;33.59;45110.00;5068480;28;20449;-75
2022/01/25 10:26:34;;;;;;;14.63;10.33;;;;;;;-143.84;33.71;45142.38;5068523;28;20437;-75
2022/01/25 10:29:02;;;;;;;13.70;10.03;;;;;;;-143.84;33.82;45132.84;5068078;28;20432;-75
2022/01/25 10:31:39;;;;;;;15.40;9.93;;;;;;;-143.84;33.52;45123.34;5067699;28;20945;-75
2022/01/25 10:34:09;;;;;;;17.63;8.90;;;;;;;-143.84;33.63;45111.91;5068576;28;20447;-75
2022/01/25 10:36:45;;;;;;;17.10;9.20;;;;;;;-143.84;33.12;45132.84;5068386;28;20534;-75
2022/01/25 10:39:13;;;;;;;18.53;10.70;;;;;;;-143.84;33.24;45117.63;5068320;28;20440;-75
2022/01/25 10:41:42;;;;;;;13.00;8.90;;;;;;;-143.84;33.11;45138.56;5068276;28;20480;-75
2022/01/25 10:44:09;;;;;;;12.10;9.10;;;;;;;-143.84;32.92;45134.75;5069166;28;20454;-75
2022/01/25 10:46:38;;;;;;;15.53;8.17;;;;;;;-143.84;32.74;45094.78;5071967;28;20444;-75
2022/01/25 10:49:07;;;;;;;15.70;9.13;;;;;;;-143.84;32.06;45140.47;5071698;28;20487;-75
2022/01/25 10:51:35;;;;;;;11.73;8.77;;;;;;;-143.84;32.85;45136.66;5071821;28;20962;-75
2022/01/25 10:54:08;;;;;;;10.50;8.50;;;;;;;-143.84;32.52;45157.59;5071757;28;20437;-75
2022/01/25 10:56:39;;;;;;;17.00;9.73;;;;;;;-143.84;33.43;45123.34;5071684;28;20998;-75
2022/01/25 10:59:11;;;;;;;13.97;8.53;;;;;;;-143.84;32.54;45136.66;5071448;28;20974;-75
2022/01/25 11:01:40;;;;;;;14.13;9.67;;;;;;;-143.84;32.71;45127.13;5071492;28;20534;-75
2022/01/25 11:04:10;;;;;;;12.80;7.63;;;;;;;-143.84;31.95;45115.72;5071436;28;20498;-75
2022/01/25 11:06:38;;;;;;;14.50;9.80;;;;;;;-143.84;32.80;45110.00;5070879;28;20475;-75
2022/01/25 11:09:11;;;;;;;14.03;10.27;;;;;;;-143.84;32.63;45121.44;5071348;28;20506;-74
2022/01/25 11:11:44;;;;;;;15.30;8.80;;;;;;;-143.84;32.57;45111.91;5071644;28;20830;-75
2022/01/25 11:16:59;;;;;;;14.43;8.17;;;;;;;-143.84;32.77;45098.56;5071179;28;20435;-75
2022/01/25 11:19:26;;;;;;;18.57;7.83;;;;;;;-143.84;31.69;45136.66;5071053;28;20468;-75
2022/01/25 11:21:55;;;;;;;11.50;7.40;;;;;;;-143.84;31.91;45129.03;5069679;28;20483;-75
2022/01/25 11:24:24;;;;;;;9.77;7.40;;;;;;;-143.84;31.81;45110.00;5069957;28;20449;-75
2022/01/25 11:26:53;;;;;;;11.43;7.87;;;;;;;-143.84;32.49;45125.22;5071092;28;20449;-75
2022/01/25 11:29:21;;;;;;;19.60;10.47;;;;;;;-143.84;33.34;45136.66;5070620;28;20461;-75
2022/01/25 11:31:52;;;;;;;14.37;9.40;;;;;;;-143.84;32.84;45132.84;5069823;28;20514;-75
2022/01/25 11:34:26;;;;;;;24.60;11.93;;;;;;;-143.84;32.31;45132.84;5070461;28;20861;-75
2022/01/25 11:36:55;;;;;;;12.73;9.37;;;;;;;-143.84;31.50;45125.22;5066768;28;20541;-75
2022/01/25 11:39:27;;;;;;;12.93;7.80;;;;;;;-143.84;31.10;45136.66;5070015;28;20445;-75
2022/01/25 11:42:04;;;;;;;11.27;8.00;;;;;;;-143.84;31.42;45113.81;5067520;28;20658;-75
2022/01/25 11:44:32;;;;;;;25.43;11.50;;;;;;;-143.84;32.47;45134.75;5068011;28;20837;-75
2022/01/25 11:47:09;;;;;;;17.33;8.30;;;;;;;-143.84;31.82;45151.91;5069080;28;20448;-75
2022/01/25 11:49:50;;;;;;;12.27;7.70;;;;;;;-143.84;32.05;45127.13;5069369;28;20531;-75
2022/01/25 11:52:18;;;;;;;11.43;8.00;;;;;;;-143.84;32.07;45129.03;5068568;28;20901;-75
2022/01/25 11:54:46;;;;;;;13.87;8.90;;;;;;;-143.84;33.47;45115.72;5069610;28;20464;-75
2022/01/25 11:57:17;;;;;;;12.20;8.73;;;;;;;-143.84;32.94;45129.03;5070011;28;20518;-75
2022/01/25 11:59:51;;;;;;;16.10;9.80;;;;;;;-143.84;32.91;45136.66;5069341;28;20453;-75
2022/01/25 12:02:36;;;;;;;12.43;8.93;;;;;;;-143.84;32.40;45123.34;5069051;28;20473;-75
2022/01/25 12:05:05;;;;;;;11.27;8.17;;;;;;;-143.84;32.60;45138.56;5069595;28;20526;-75
2022/01/25 12:07:39;;;;;;;16.83;10.17;;;;;;;-143.84;33.31;45150.00;5067994;28;20449;-75
2022/01/25 12:10:32;;;;;;;18.43;9.47;;;;;;;-143.84;32.40;45138.56;5069219;28;20445;-75
2022/01/25 12:13:14;;;;;;;18.17;10.50;;;;;;;-143.84;33.33;45140.47;5068408;28;20510;-75
2022/01/25 12:15:43;;;;;;;14.47;9.63;;;;;;;-143.84;33.87;45132.84;5068286;28;20958;-75
2022/01/25 12:18:11;;;;;;;15.80;9.37;;;;;;;-143.84;33.37;45150.00;5068921;28;20464;-75
2022/01/25 12:20:49;;;;;;;12.27;8.97;;;;;;;-143.84;34.06;45123.34;5068315;28;20879;-75
2022/01/25 12:23:18;;;;;;;14.90;9.53;;;;;;;-143.84;33.30;45144.28;5066914;28;20879;-75
2022/01/25 12:25:53;;;;;;;12.83;9.43;;;;;;;-143.84;33.68;45129.03;5068423;28;20445;-74